Terminal Aerodrome Forecast
Issued by NWS

Home | Current Version | Previous Version | Text Only | Print | Product List | Glossary On
Versions: 1 2 3 4 5 6 7 8 9 10 11 12 13 14
000
FTUS46 KMTR 282000 AAA
TAFMRY
TAF AMD
KMRY 282027Z 2820/2918 29009KT P6SM FEW008 SCT011
      TEMPO 2820/2822 BKN010
     FM282200 29010KT P6SM FEW010 SCT012
     FM290000 24008KT P6SM BKN015
     FM290300 22005KT P6SM OVC009=

USA.gov is the U.S. government's official web portal to all federal, state and local government web resources and services.